sensor_id;sensor_type;location;lat;lon;timestamp;P1;durP1;ratioP1;P2;durP2;ratioP2
62580;SDS011;48640;48.770;9.148;2023-02-23T00:01:20;21.95;;;13.75;;
62580;SDS011;48640;48.770;9.148;2023-02-23T00:03:48;23.42;;;14.10;;
62580;SDS011;48640;48.770;9.148;2023-02-23T00:06:16;20.23;;;13.07;;
62580;SDS011;48640;48.770;9.148;2023-02-23T00:08:45;29.52;;;17.90;;
62580;SDS011;48640;48.770;9.148;2023-02-23T00:11:13;23.23;;;15.27;;
62580;SDS011;48640;48.770;9.148;2023-02-23T00:13:41;20.63;;;12.98;;
62580;SDS011;48640;48.770;9.148;2023-02-23T00:16:11;24.05;;;14.13;;
62580;SDS011;48640;48.770;9.148;2023-02-23T00:18:42;26.50;;;14.43;;
62580;SDS011;48640;48.770;9.148;2023-02-23T00:21:12;24.17;;;14.75;;
62580;SDS011;48640;48.770;9.148;2023-02-23T00:23:42;26.33;;;16.02;;
62580;SDS011;48640;48.770;9.148;2023-02-23T00:28:39;22.40;;;12.98;;
62580;SDS011;48640;48.770;9.148;2023-02-23T00:31:08;21.90;;;13.43;;
62580;SDS011;48640;48.770;9.148;2023-02-23T00:33:36;21.75;;;14.63;;
62580;SDS011;48640;48.770;9.148;2023-02-23T00:36:05;22.25;;;13.45;;
62580;SDS011;48640;48.770;9.148;2023-02-23T00:38:34;19.08;;;13.48;;
62580;SDS011;48640;48.770;9.148;2023-02-23T00:41:05;22.92;;;14.40;;
62580;SDS011;48640;48.770;9.148;2023-02-23T00:43:33;22.83;;;14.50;;
62580;SDS011;48640;48.770;9.148;2023-02-23T00:46:01;23.35;;;15.18;;
62580;SDS011;48640;48.770;9.148;2023-02-23T00:48:30;27.35;;;15.25;;
62580;SDS011;48640;48.770;9.148;2023-02-23T00:50:58;21.45;;;14.95;;
62580;SDS011;48640;48.770;9.148;2023-02-23T00:53:27;20.27;;;15.38;;
62580;SDS011;48640;48.770;9.148;2023-02-23T00:55:54;24.30;;;15.30;;
62580;SDS011;48640;48.770;9.148;2023-02-23T00:58:21;25.35;;;15.95;;
62580;SDS011;48640;48.770;9.148;2023-02-23T01:00:48;22.05;;;15.38;;
62580;SDS011;48640;48.770;9.148;2023-02-23T01:03:15;24.88;;;16.65;;
62580;SDS011;48640;48.770;9.148;2023-02-23T01:05:42;33.35;;;19.10;;
62580;SDS011;48640;48.770;9.148;2023-02-23T01:08:10;25.52;;;17.70;;
62580;SDS011;48640;48.770;9.148;2023-02-23T01:10:41;25.38;;;16.88;;
62580;SDS011;48640;48.770;9.148;2023-02-23T01:13:16;22.38;;;16.73;;
62580;SDS011;48640;48.770;9.148;2023-02-23T01:15:43;24.52;;;17.02;;
62580;SDS011;48640;48.770;9.148;2023-02-23T01:18:12;23.13;;;16.05;;
62580;SDS011;48640;48.770;9.148;2023-02-23T01:20:39;25.25;;;17.40;;
62580;SDS011;48640;48.770;9.148;2023-02-23T01:23:06;23.30;;;17.52;;
62580;SDS011;48640;48.770;9.148;2023-02-23T01:25:33;25.08;;;17.08;;
62580;SDS011;48640;48.770;9.148;2023-02-23T01:28:03;25.17;;;17.00;;
62580;SDS011;48640;48.770;9.148;2023-02-23T01:30:30;24.63;;;16.85;;
62580;SDS011;48640;48.770;9.148;2023-02-23T01:32:57;24.98;;;17.63;;
62580;SDS011;48640;48.770;9.148;2023-02-23T01:35:24;24.70;;;16.58;;
62580;SDS011;48640;48.770;9.148;2023-02-23T01:37:51;27.40;;;18.15;;
62580;SDS011;48640;48.770;9.148;2023-02-23T01:40:19;26.10;;;17.60;;
62580;SDS011;48640;48.770;9.148;2023-02-23T01:42:53;25.33;;;17.50;;
62580;SDS011;48640;48.770;9.148;2023-02-23T01:45:32;23.75;;;17.20;;
62580;SDS011;48640;48.770;9.148;2023-02-23T01:50:32;24.13;;;16.23;;
62580;SDS011;48640;48.770;9.148;2023-02-23T01:53:04;25.02;;;17.40;;
62580;SDS011;48640;48.770;9.148;2023-02-23T01:55:31;23.08;;;16.73;;
62580;SDS011;48640;48.770;9.148;2023-02-23T01:58:00;24.05;;;16.45;;
62580;SDS011;48640;48.770;9.148;2023-02-23T02:00:33;22.63;;;16.80;;
62580;SDS011;48640;48.770;9.148;2023-02-23T02:03:03;27.02;;;17.45;;
62580;SDS011;48640;48.770;9.148;2023-02-23T02:05:34;24.80;;;16.65;;
62580;SDS011;48640;48.770;9.148;2023-02-23T02:08:03;24.98;;;16.85;;
62580;SDS011;48640;48.770;9.148;2023-02-23T02:10:34;23.65;;;14.68;;
62580;SDS011;48640;48.770;9.148;2023-02-23T02:13:04;24.95;;;16.25;;
62580;SDS011;48640;48.770;9.148;2023-02-23T02:15:36;21.27;;;15.18;;
62580;SDS011;48640;48.770;9.148;2023-02-23T02:18:18;20.95;;;14.63;;
62580;SDS011;48640;48.770;9.148;2023-02-23T02:24:16;20.88;;;14.57;;
62580;SDS011;48640;48.770;9.148;2023-02-23T02:27:09;20.33;;;14.35;;
62580;SDS011;48640;48.770;9.148;2023-02-23T02:32:49;20.52;;;12.75;;
62580;SDS011;48640;48.770;9.148;2023-02-23T02:35:34;28.52;;;12.52;;
62580;SDS011;48640;48.770;9.148;2023-02-23T02:38:26;21.50;;;12.07;;
62580;SDS011;48640;48.770;9.148;2023-02-23T02:41:01;18.95;;;11.43;;
62580;SDS011;48640;48.770;9.148;2023-02-23T02:43:33;16.00;;;11.93;;
62580;SDS011;48640;48.770;9.148;2023-02-23T02:46:09;16.73;;;11.50;;
62580;SDS011;48640;48.770;9.148;2023-02-23T02:48:40;20.25;;;12.52;;
62580;SDS011;48640;48.770;9.148;2023-02-23T02:51:16;17.40;;;12.00;;
62580;SDS011;48640;48.770;9.148;2023-02-23T02:53:52;15.88;;;11.02;;
62580;SDS011;48640;48.770;9.148;2023-02-23T02:56:30;17.48;;;11.13;;
62580;SDS011;48640;48.770;9.148;2023-02-23T02:59:03;15.77;;;10.32;;
62580;SDS011;48640;48.770;9.148;2023-02-23T03:01:30;21.27;;;10.45;;
62580;SDS011;48640;48.770;9.148;2023-02-23T03:04:19;14.95;;;10.10;;
62580;SDS011;48640;48.770;9.148;2023-02-23T03:07:06;18.13;;;9.85;;
62580;SDS011;48640;48.770;9.148;2023-02-23T03:10:01;16.52;;;9.82;;
62580;SDS011;48640;48.770;9.148;2023-02-23T03:15:40;16.17;;;10.25;;
62580;SDS011;48640;48.770;9.148;2023-02-23T03:18:39;15.20;;;9.18;;
62580;SDS011;48640;48.770;9.148;2023-02-23T03:21:34;14.25;;;10.43;;
62580;SDS011;48640;48.770;9.148;2023-02-23T03:24:26;16.63;;;9.43;;
62580;SDS011;48640;48.770;9.148;2023-02-23T03:27:22;14.48;;;9.02;;
62580;SDS011;48640;48.770;9.148;2023-02-23T03:30:10;15.02;;;8.68;;
62580;SDS011;48640;48.770;9.148;2023-02-23T03:33:03;16.83;;;8.70;;
62580;SDS011;48640;48.770;9.148;2023-02-23T03:35:55;15.77;;;10.38;;
62580;SDS011;48640;48.770;9.148;2023-02-23T03:38:46;16.50;;;9.55;;
62580;SDS011;48640;48.770;9.148;2023-02-23T03:41:36;14.43;;;9.48;;
62580;SDS011;48640;48.770;9.148;2023-02-23T03:44:26;12.85;;;7.88;;
62580;SDS011;48640;48.770;9.148;2023-02-23T03:47:14;12.65;;;8.82;;
62580;SDS011;48640;48.770;9.148;2023-02-23T03:50:01;17.85;;;9.88;;
62580;SDS011;48640;48.770;9.148;2023-02-23T03:52:50;15.88;;;8.55;;
62580;SDS011;48640;48.770;9.148;2023-02-23T03:55:39;13.05;;;7.68;;
62580;SDS011;48640;48.770;9.148;2023-02-23T03:58:27;14.07;;;9.15;;
62580;SDS011;48640;48.770;9.148;2023-02-23T04:01:15;14.60;;;7.75;;
62580;SDS011;48640;48.770;9.148;2023-02-23T04:04:02;11.80;;;7.43;;
62580;SDS011;48640;48.770;9.148;2023-02-23T04:06:50;11.40;;;7.43;;
62580;SDS011;48640;48.770;9.148;2023-02-23T04:09:38;13.27;;;8.43;;
62580;SDS011;48640;48.770;9.148;2023-02-23T04:12:23;13.38;;;8.90;;
62580;SDS011;48640;48.770;9.148;2023-02-23T04:15:12;13.68;;;8.40;;
62580;SDS011;48640;48.770;9.148;2023-02-23T04:17:43;11.73;;;7.53;;
62580;SDS011;48640;48.770;9.148;2023-02-23T04:20:11;13.25;;;7.57;;
62580;SDS011;48640;48.770;9.148;2023-02-23T04:22:39;11.43;;;7.82;;
62580;SDS011;48640;48.770;9.148;2023-02-23T04:25:06;14.45;;;8.73;;
62580;SDS011;48640;48.770;9.148;2023-02-23T04:27:33;12.95;;;6.60;;
62580;SDS011;48640;48.770;9.148;2023-02-23T04:30:00;11.18;;;6.88;;
62580;SDS011;48640;48.770;9.148;2023-02-23T04:32:27;11.38;;;7.22;;
62580;SDS011;48640;48.770;9.148;2023-02-23T04:34:55;10.57;;;7.53;;
62580;SDS011;48640;48.770;9.148;2023-02-23T04:37:22;10.93;;;6.40;;
62580;SDS011;48640;48.770;9.148;2023-02-23T04:39:49;9.88;;;6.60;;
62580;SDS011;48640;48.770;9.148;2023-02-23T04:42:16;10.13;;;6.93;;
62580;SDS011;48640;48.770;9.148;2023-02-23T04:44:43;10.80;;;5.97;;
62580;SDS011;48640;48.770;9.148;2023-02-23T04:47:10;17.98;;;11.68;;
62580;SDS011;48640;48.770;9.148;2023-02-23T04:49:39;14.43;;;8.23;;
62580;SDS011;48640;48.770;9.148;2023-02-23T04:52:07;14.95;;;8.50;;
62580;SDS011;48640;48.770;9.148;2023-02-23T04:54:36;13.07;;;7.32;;
62580;SDS011;48640;48.770;9.148;2023-02-23T04:57:03;10.05;;;6.53;;
62580;SDS011;48640;48.770;9.148;2023-02-23T04:59:29;11.20;;;7.45;;
62580;SDS011;48640;48.770;9.148;2023-02-23T05:01:57;13.15;;;7.72;;
62580;SDS011;48640;48.770;9.148;2023-02-23T05:04:24;17.50;;;7.70;;
62580;SDS011;48640;48.770;9.148;2023-02-23T05:06:51;11.00;;;6.60;;
62580;SDS011;48640;48.770;9.148;2023-02-23T05:09:19;10.07;;;7.18;;
62580;SDS011;48640;48.770;9.148;2023-02-23T05:11:46;13.07;;;8.00;;
62580;SDS011;48640;48.770;9.148;2023-02-23T05:14:12;13.20;;;6.90;;
62580;SDS011;48640;48.770;9.148;2023-02-23T05:16:39;18.75;;;7.53;;
62580;SDS011;48640;48.770;9.148;2023-02-23T05:19:06;10.98;;;6.90;;
62580;SDS011;48640;48.770;9.148;2023-02-23T05:21:33;12.00;;;7.03;;
62580;SDS011;48640;48.770;9.148;2023-02-23T05:24:00;11.13;;;6.90;;
62580;SDS011;48640;48.770;9.148;2023-02-23T05:26:28;13.10;;;7.22;;
62580;SDS011;48640;48.770;9.148;2023-02-23T05:28:54;12.60;;;7.40;;
62580;SDS011;48640;48.770;9.148;2023-02-23T05:31:22;11.90;;;7.15;;
62580;SDS011;48640;48.770;9.148;2023-02-23T05:33:50;10.90;;;7.03;;
62580;SDS011;48640;48.770;9.148;2023-02-23T05:36:17;12.15;;;7.18;;
62580;SDS011;48640;48.770;9.148;2023-02-23T05:38:46;10.85;;;6.43;;
62580;SDS011;48640;48.770;9.148;2023-02-23T05:41:14;11.20;;;7.28;;
62580;SDS011;48640;48.770;9.148;2023-02-23T05:43:43;14.27;;;8.02;;
62580;SDS011;48640;48.770;9.148;2023-02-23T05:46:11;9.85;;;6.28;;
62580;SDS011;48640;48.770;9.148;2023-02-23T05:48:41;9.35;;;6.35;;
62580;SDS011;48640;48.770;9.148;2023-02-23T05:51:09;11.45;;;6.43;;
62580;SDS011;48640;48.770;9.148;2023-02-23T05:53:37;9.77;;;6.60;;
62580;SDS011;48640;48.770;9.148;2023-02-23T05:56:05;9.48;;;6.45;;
62580;SDS011;48640;48.770;9.148;2023-02-23T05:58:34;10.68;;;7.05;;
62580;SDS011;48640;48.770;9.148;2023-02-23T06:01:02;9.10;;;6.97;;
62580;SDS011;48640;48.770;9.148;2023-02-23T06:03:29;11.75;;;7.05;;
62580;SDS011;48640;48.770;9.148;2023-02-23T06:05:57;10.07;;;6.30;;
62580;SDS011;48640;48.770;9.148;2023-02-23T06:08:24;12.40;;;6.60;;
62580;SDS011;48640;48.770;9.148;2023-02-23T06:10:51;12.55;;;6.50;;
62580;SDS011;48640;48.770;9.148;2023-02-23T06:13:18;11.57;;;7.30;;
62580;SDS011;48640;48.770;9.148;2023-02-23T06:15:46;10.60;;;6.78;;
62580;SDS011;48640;48.770;9.148;2023-02-23T06:18:14;11.40;;;6.38;;
62580;SDS011;48640;48.770;9.148;2023-02-23T06:20:42;11.85;;;6.72;;
62580;SDS011;48640;48.770;9.148;2023-02-23T06:23:09;10.43;;;6.50;;
62580;SDS011;48640;48.770;9.148;2023-02-23T06:25:37;9.85;;;6.13;;
62580;SDS011;48640;48.770;9.148;2023-02-23T06:28:04;13.27;;;6.72;;
62580;SDS011;48640;48.770;9.148;2023-02-23T06:30:32;10.50;;;6.63;;
62580;SDS011;48640;48.770;9.148;2023-02-23T06:32:59;12.48;;;6.55;;
62580;SDS011;48640;48.770;9.148;2023-02-23T06:35:28;11.32;;;6.65;;
62580;SDS011;48640;48.770;9.148;2023-02-23T06:37:54;12.93;;;6.55;;
62580;SDS011;48640;48.770;9.148;2023-02-23T06:40:21;10.05;;;6.03;;
62580;SDS011;48640;48.770;9.148;2023-02-23T06:42:48;10.18;;;7.15;;
62580;SDS011;48640;48.770;9.148;2023-02-23T06:45:15;11.55;;;6.93;;
62580;SDS011;48640;48.770;9.148;2023-02-23T06:47:43;15.02;;;6.63;;
62580;SDS011;48640;48.770;9.148;2023-02-23T06:50:10;19.15;;;10.00;;
62580;SDS011;48640;48.770;9.148;2023-02-23T06:52:39;11.65;;;6.60;;
62580;SDS011;48640;48.770;9.148;2023-02-23T06:55:06;12.30;;;6.97;;
62580;SDS011;48640;48.770;9.148;2023-02-23T06:57:34;12.32;;;6.47;;
62580;SDS011;48640;48.770;9.148;2023-02-23T07:00:01;13.00;;;6.85;;
62580;SDS011;48640;48.770;9.148;2023-02-23T07:02:28;10.80;;;6.88;;
62580;SDS011;48640;48.770;9.148;2023-02-23T07:04:55;11.73;;;7.05;;
62580;SDS011;48640;48.770;9.148;2023-02-23T07:07:22;11.27;;;6.93;;
62580;SDS011;48640;48.770;9.148;2023-02-23T07:09:50;15.13;;;7.78;;
62580;SDS011;48640;48.770;9.148;2023-02-23T07:12:17;12.05;;;7.55;;
62580;SDS011;48640;48.770;9.148;2023-02-23T07:14:45;12.18;;;7.68;;
62580;SDS011;48640;48.770;9.148;2023-02-23T07:17:12;11.13;;;7.20;;
62580;SDS011;48640;48.770;9.148;2023-02-23T07:19:39;11.43;;;7.47;;
62580;SDS011;48640;48.770;9.148;2023-02-23T07:22:06;15.75;;;8.95;;
62580;SDS011;48640;48.770;9.148;2023-02-23T07:24:33;12.45;;;7.82;;
62580;SDS011;48640;48.770;9.148;2023-02-23T07:27:01;13.25;;;8.65;;
62580;SDS011;48640;48.770;9.148;2023-02-23T07:29:28;13.68;;;9.30;;
62580;SDS011;48640;48.770;9.148;2023-02-23T07:31:55;17.20;;;8.93;;
62580;SDS011;48640;48.770;9.148;2023-02-23T07:34:22;13.75;;;9.00;;
62580;SDS011;48640;48.770;9.148;2023-02-23T07:36:49;13.32;;;9.55;;
62580;SDS011;48640;48.770;9.148;2023-02-23T07:39:15;12.32;;;7.82;;
62580;SDS011;48640;48.770;9.148;2023-02-23T07:41:42;14.77;;;7.70;;
62580;SDS011;48640;48.770;9.148;2023-02-23T07:44:11;13.95;;;8.15;;
62580;SDS011;48640;48.770;9.148;2023-02-23T07:46:37;10.63;;;7.22;;
62580;SDS011;48640;48.770;9.148;2023-02-23T07:49:05;14.77;;;7.90;;
62580;SDS011;48640;48.770;9.148;2023-02-23T07:51:31;10.27;;;7.05;;
62580;SDS011;48640;48.770;9.148;2023-02-23T07:54:00;12.43;;;7.88;;
62580;SDS011;48640;48.770;9.148;2023-02-23T07:58:55;14.00;;;7.30;;
62580;SDS011;48640;48.770;9.148;2023-02-23T08:01:23;10.52;;;6.95;;
62580;SDS011;48640;48.770;9.148;2023-02-23T08:03:50;11.23;;;6.90;;
62580;SDS011;48640;48.770;9.148;2023-02-23T08:06:17;9.82;;;6.25;;
62580;SDS011;48640;48.770;9.148;2023-02-23T08:08:44;11.18;;;6.90;;
62580;SDS011;48640;48.770;9.148;2023-02-23T08:11:11;9.93;;;7.00;;
62580;SDS011;48640;48.770;9.148;2023-02-23T08:13:39;13.32;;;7.97;;
62580;SDS011;48640;48.770;9.148;2023-02-23T08:16:06;14.10;;;7.32;;
62580;SDS011;48640;48.770;9.148;2023-02-23T08:18:35;11.40;;;7.88;;
62580;SDS011;48640;48.770;9.148;2023-02-23T08:21:02;12.55;;;7.13;;
62580;SDS011;48640;48.770;9.148;2023-02-23T08:23:30;10.48;;;6.70;;
62580;SDS011;48640;48.770;9.148;2023-02-23T08:25:58;10.73;;;7.43;;
62580;SDS011;48640;48.770;9.148;2023-02-23T08:28:25;12.27;;;6.75;;
62580;SDS011;48640;48.770;9.148;2023-02-23T08:30:52;9.73;;;6.63;;
62580;SDS011;48640;48.770;9.148;2023-02-23T08:33:19;12.52;;;6.88;;
62580;SDS011;48640;48.770;9.148;2023-02-23T08:35:48;12.18;;;7.43;;
62580;SDS011;48640;48.770;9.148;2023-02-23T08:38:17;16.20;;;7.32;;
62580;SDS011;48640;48.770;9.148;2023-02-23T08:40:44;10.38;;;6.50;;
62580;SDS011;48640;48.770;9.148;2023-02-23T08:43:11;8.95;;;5.72;;
62580;SDS011;48640;48.770;9.148;2023-02-23T08:45:38;9.35;;;5.50;;
62580;SDS011;48640;48.770;9.148;2023-02-23T08:48:05;9.43;;;5.63;;
62580;SDS011;48640;48.770;9.148;2023-02-23T08:50:32;12.90;;;5.47;;
62580;SDS011;48640;48.770;9.148;2023-02-23T08:53:01;11.60;;;5.35;;
62580;SDS011;48640;48.770;9.148;2023-02-23T08:55:28;12.25;;;6.65;;
62580;SDS011;48640;48.770;9.148;2023-02-23T08:57:54;10.55;;;4.70;;
62580;SDS011;48640;48.770;9.148;2023-02-23T09:00:22;12.30;;;5.35;;
62580;SDS011;48640;48.770;9.148;2023-02-23T09:02:49;12.65;;;5.28;;
62580;SDS011;48640;48.770;9.148;2023-02-23T09:05:16;9.52;;;4.75;;
62580;SDS011;48640;48.770;9.148;2023-02-23T09:07:43;9.00;;;4.75;;
62580;SDS011;48640;48.770;9.148;2023-02-23T09:10:13;7.45;;;4.75;;
62580;SDS011;48640;48.770;9.148;2023-02-23T09:12:43;10.52;;;4.90;;
62580;SDS011;48640;48.770;9.148;2023-02-23T09:15:10;11.85;;;4.60;;
62580;SDS011;48640;48.770;9.148;2023-02-23T09:17:37;11.82;;;6.47;;
62580;SDS011;48640;48.770;9.148;2023-02-23T09:20:07;11.18;;;6.72;;
62580;SDS011;48640;48.770;9.148;2023-02-23T09:22:37;10.95;;;5.82;;
62580;SDS011;48640;48.770;9.148;2023-02-23T09:25:04;9.80;;;5.80;;
62580;SDS011;48640;48.770;9.148;2023-02-23T09:27:34;15.40;;;7.05;;
62580;SDS011;48640;48.770;9.148;2023-02-23T09:30:00;13.38;;;7.78;;
62580;SDS011;48640;48.770;9.148;2023-02-23T09:32:28;14.05;;;6.70;;
62580;SDS011;48640;48.770;9.148;2023-02-23T09:34:55;10.07;;;5.03;;
62580;SDS011;48640;48.770;9.148;2023-02-23T09:37:22;11.02;;;5.35;;
62580;SDS011;48640;48.770;9.148;2023-02-23T09:39:49;14.32;;;7.68;;
62580;SDS011;48640;48.770;9.148;2023-02-23T09:42:23;10.07;;;6.10;;
62580;SDS011;48640;48.770;9.148;2023-02-23T09:45:03;10.43;;;5.97;;
62580;SDS011;48640;48.770;9.148;2023-02-23T09:47:44;11.73;;;6.18;;
62580;SDS011;48640;48.770;9.148;2023-02-23T09:50:21;12.32;;;5.97;;
62580;SDS011;48640;48.770;9.148;2023-02-23T09:52:51;11.63;;;5.87;;
62580;SDS011;48640;48.770;9.148;2023-02-23T09:55:21;12.68;;;5.45;;
62580;SDS011;48640;48.770;9.148;2023-02-23T09:57:49;8.55;;;5.10;;
62580;SDS011;48640;48.770;9.148;2023-02-23T10:00:17;8.57;;;4.50;;
62580;SDS011;48640;48.770;9.148;2023-02-23T10:03:05;9.88;;;4.72;;
62580;SDS011;48640;48.770;9.148;2023-02-23T10:05:47;12.20;;;4.97;;
62580;SDS011;48640;48.770;9.148;2023-02-23T10:08:21;7.75;;;4.47;;
62580;SDS011;48640;48.770;9.148;2023-02-23T10:10:57;13.07;;;5.45;;
62580;SDS011;48640;48.770;9.148;2023-02-23T10:13:34;15.70;;;4.97;;
62580;SDS011;48640;48.770;9.148;2023-02-23T10:16:10;9.75;;;4.95;;
62580;SDS011;48640;48.770;9.148;2023-02-23T10:18:45;8.73;;;4.72;;
62580;SDS011;48640;48.770;9.148;2023-02-23T10:21:20;8.88;;;3.97;;
62580;SDS011;48640;48.770;9.148;2023-02-23T10:23:55;14.57;;;5.53;;
62580;SDS011;48640;48.770;9.148;2023-02-23T10:26:26;10.93;;;4.82;;
62580;SDS011;48640;48.770;9.148;2023-02-23T10:29:04;13.68;;;6.40;;
62580;SDS011;48640;48.770;9.148;2023-02-23T10:31:45;17.98;;;8.30;;
62580;SDS011;48640;48.770;9.148;2023-02-23T10:34:15;15.98;;;7.95;;
62580;SDS011;48640;48.770;9.148;2023-02-23T10:36:44;13.32;;;5.13;;
62580;SDS011;48640;48.770;9.148;2023-02-23T10:39:15;13.70;;;4.97;;
62580;SDS011;48640;48.770;9.148;2023-02-23T10:41:42;9.50;;;3.58;;
62580;SDS011;48640;48.770;9.148;2023-02-23T10:44:14;14.10;;;4.22;;
62580;SDS011;48640;48.770;9.148;2023-02-23T10:46:45;7.20;;;2.40;;
62580;SDS011;48640;48.770;9.148;2023-02-23T10:49:17;6.35;;;2.13;;
62580;SDS011;48640;48.770;9.148;2023-02-23T10:51:47;10.60;;;4.95;;
62580;SDS011;48640;48.770;9.148;2023-02-23T10:54:37;12.33;;;6.63;;
62580;SDS011;48640;48.770;9.148;2023-02-23T10:57:08;14.65;;;7.75;;
62580;SDS011;48640;48.770;9.148;2023-02-23T10:59:55;9.35;;;5.68;;
62580;SDS011;48640;48.770;9.148;2023-02-23T11:02:33;10.52;;;5.10;;
62580;SDS011;48640;48.770;9.148;2023-02-23T11:05:04;13.80;;;7.05;;
62580;SDS011;48640;48.770;9.148;2023-02-23T11:07:32;15.02;;;7.57;;
62580;SDS011;48640;48.770;9.148;2023-02-23T11:10:11;13.10;;;7.25;;
62580;SDS011;48640;48.770;9.148;2023-02-23T11:12:50;14.43;;;6.55;;
62580;SDS011;48640;48.770;9.148;2023-02-23T11:15:26;14.70;;;5.35;;
62580;SDS011;48640;48.770;9.148;2023-02-23T11:17:54;7.63;;;3.70;;
62580;SDS011;48640;48.770;9.148;2023-02-23T11:20:24;7.32;;;4.00;;
62580;SDS011;48640;48.770;9.148;2023-02-23T11:22:54;17.98;;;7.70;;
62580;SDS011;48640;48.770;9.148;2023-02-23T11:25:23;9.63;;;4.72;;
62580;SDS011;48640;48.770;9.148;2023-02-23T11:27:53;10.07;;;4.57;;
62580;SDS011;48640;48.770;9.148;2023-02-23T11:30:21;14.88;;;6.75;;
62580;SDS011;48640;48.770;9.148;2023-02-23T11:32:55;12.88;;;6.43;;
62580;SDS011;48640;48.770;9.148;2023-02-23T11:35:28;17.17;;;8.25;;
62580;SDS011;48640;48.770;9.148;2023-02-23T11:37:56;17.00;;;7.63;;
62580;SDS011;48640;48.770;9.148;2023-02-23T11:40:24;22.55;;;9.07;;
62580;SDS011;48640;48.770;9.148;2023-02-23T11:42:54;15.52;;;8.75;;
62580;SDS011;48640;48.770;9.148;2023-02-23T11:45:22;13.15;;;8.55;;
62580;SDS011;48640;48.770;9.148;2023-02-23T11:47:52;12.10;;;7.90;;
62580;SDS011;48640;48.770;9.148;2023-02-23T11:50:24;17.73;;;8.52;;
62580;SDS011;48640;48.770;9.148;2023-02-23T11:52:55;14.40;;;8.55;;
62580;SDS011;48640;48.770;9.148;2023-02-23T11:55:25;19.15;;;9.05;;
62580;SDS011;48640;48.770;9.148;2023-02-23T11:58:05;17.38;;;10.27;;
62580;SDS011;48640;48.770;9.148;2023-02-23T12:00:33;17.27;;;9.25;;
62580;SDS011;48640;48.770;9.148;2023-02-23T12:03:02;14.00;;;8.45;;
62580;SDS011;48640;48.770;9.148;2023-02-23T12:07:58;13.02;;;6.55;;
62580;SDS011;48640;48.770;9.148;2023-02-23T12:10:31;16.60;;;7.07;;
62580;SDS011;48640;48.770;9.148;2023-02-23T12:13:04;19.48;;;7.70;;
62580;SDS011;48640;48.770;9.148;2023-02-23T12:15:42;17.17;;;8.00;;
62580;SDS011;48640;48.770;9.148;2023-02-23T12:18:19;12.85;;;6.93;;
62580;SDS011;48640;48.770;9.148;2023-02-23T12:20:59;15.90;;;6.82;;
62580;SDS011;48640;48.770;9.148;2023-02-23T12:23:35;12.23;;;6.43;;
62580;SDS011;48640;48.770;9.148;2023-02-23T12:26:08;10.15;;;5.90;;
62580;SDS011;48640;48.770;9.148;2023-02-23T12:28:42;11.60;;;5.60;;
62580;SDS011;48640;48.770;9.148;2023-02-23T12:31:17;15.25;;;5.45;;
62580;SDS011;48640;48.770;9.148;2023-02-23T12:33:52;12.20;;;7.00;;
62580;SDS011;48640;48.770;9.148;2023-02-23T12:36:23;8.90;;;5.35;;
62580;SDS011;48640;48.770;9.148;2023-02-23T12:39:00;12.05;;;6.25;;
62580;SDS011;48640;48.770;9.148;2023-02-23T12:41:34;17.20;;;6.95;;
62580;SDS011;48640;48.770;9.148;2023-02-23T12:44:07;10.98;;;5.00;;
62580;SDS011;48640;48.770;9.148;2023-02-23T12:46:47;12.85;;;6.00;;
62580;SDS011;48640;48.770;9.148;2023-02-23T12:51:49;9.20;;;4.65;;
62580;SDS011;48640;48.770;9.148;2023-02-23T12:54:18;9.27;;;4.40;;
62580;SDS011;48640;48.770;9.148;2023-02-23T12:56:48;9.63;;;4.78;;
62580;SDS011;48640;48.770;9.148;2023-02-23T12:59:24;9.15;;;4.22;;
62580;SDS011;48640;48.770;9.148;2023-02-23T13:02:13;10.07;;;4.75;;
62580;SDS011;48640;48.770;9.148;2023-02-23T13:04:52;9.75;;;3.95;;
62580;SDS011;48640;48.770;9.148;2023-02-23T13:07:28;8.35;;;3.83;;
62580;SDS011;48640;48.770;9.148;2023-02-23T13:10:09;7.32;;;3.67;;
62580;SDS011;48640;48.770;9.148;2023-02-23T13:12:44;11.27;;;4.20;;
62580;SDS011;48640;48.770;9.148;2023-02-23T13:15:21;11.07;;;4.45;;
62580;SDS011;48640;48.770;9.148;2023-02-23T13:17:55;7.80;;;4.22;;
62580;SDS011;48640;48.770;9.148;2023-02-23T13:20:31;8.75;;;3.72;;
62580;SDS011;48640;48.770;9.148;2023-02-23T13:23:04;12.38;;;4.70;;
62580;SDS011;48640;48.770;9.148;2023-02-23T13:25:39;8.80;;;4.38;;
62580;SDS011;48640;48.770;9.148;2023-02-23T13:28:15;10.55;;;4.63;;
62580;SDS011;48640;48.770;9.148;2023-02-23T13:30:47;11.63;;;4.60;;
62580;SDS011;48640;48.770;9.148;2023-02-23T13:33:17;9.77;;;5.28;;
62580;SDS011;48640;48.770;9.148;2023-02-23T13:35:51;9.32;;;5.50;;
62580;SDS011;48640;48.770;9.148;2023-02-23T13:38:21;9.27;;;5.70;;
62580;SDS011;48640;48.770;9.148;2023-02-23T13:40:55;13.20;;;5.68;;
62580;SDS011;48640;48.770;9.148;2023-02-23T13:43:31;10.93;;;6.47;;
62580;SDS011;48640;48.770;9.148;2023-02-23T13:46:06;11.38;;;5.50;;
62580;SDS011;48640;48.770;9.148;2023-02-23T13:48:45;10.02;;;6.10;;
62580;SDS011;48640;48.770;9.148;2023-02-23T13:51:22;14.68;;;6.20;;
62580;SDS011;48640;48.770;9.148;2023-02-23T13:53:59;12.77;;;6.38;;
62580;SDS011;48640;48.770;9.148;2023-02-23T13:56:30;9.77;;;5.57;;
62580;SDS011;48640;48.770;9.148;2023-02-23T13:59:02;12.63;;;5.45;;
62580;SDS011;48640;48.770;9.148;2023-02-23T14:01:34;10.27;;;5.68;;
62580;SDS011;48640;48.770;9.148;2023-02-23T14:04:03;13.73;;;5.88;;
62580;SDS011;48640;48.770;9.148;2023-02-23T14:06:37;10.32;;;4.72;;
62580;SDS011;48640;48.770;9.148;2023-02-23T14:09:06;13.23;;;5.07;;
62580;SDS011;48640;48.770;9.148;2023-02-23T14:11:40;10.87;;;4.80;;
62580;SDS011;48640;48.770;9.148;2023-02-23T14:14:12;8.20;;;5.07;;
62580;SDS011;48640;48.770;9.148;2023-02-23T14:20:16;9.93;;;4.70;;
62580;SDS011;48640;48.770;9.148;2023-02-23T14:23:14;6.70;;;3.85;;
62580;SDS011;48640;48.770;9.148;2023-02-23T14:26:10;12.60;;;4.75;;
62580;SDS011;48640;48.770;9.148;2023-02-23T14:28:40;6.15;;;3.28;;
62580;SDS011;48640;48.770;9.148;2023-02-23T14:31:16;8.00;;;3.88;;
62580;SDS011;48640;48.770;9.148;2023-02-23T14:33:50;8.93;;;3.67;;
62580;SDS011;48640;48.770;9.148;2023-02-23T14:36:32;9.55;;;3.97;;
62580;SDS011;48640;48.770;9.148;2023-02-23T14:39:05;6.97;;;3.78;;
62580;SDS011;48640;48.770;9.148;2023-02-23T14:41:37;7.45;;;3.28;;
62580;SDS011;48640;48.770;9.148;2023-02-23T14:44:11;8.95;;;4.05;;
62580;SDS011;48640;48.770;9.148;2023-02-23T14:46:53;9.40;;;3.97;;
62580;SDS011;48640;48.770;9.148;2023-02-23T14:49:22;11.93;;;3.90;;
62580;SDS011;48640;48.770;9.148;2023-02-23T14:51:52;9.50;;;4.28;;
62580;SDS011;48640;48.770;9.148;2023-02-23T14:54:23;10.70;;;4.43;;
62580;SDS011;48640;48.770;9.148;2023-02-23T14:56:55;10.27;;;3.78;;
62580;SDS011;48640;48.770;9.148;2023-02-23T14:59:23;7.35;;;3.80;;
62580;SDS011;48640;48.770;9.148;2023-02-23T15:01:52;8.77;;;3.72;;
62580;SDS011;48640;48.770;9.148;2023-02-23T15:04:20;8.10;;;4.10;;
62580;SDS011;48640;48.770;9.148;2023-02-23T15:06:51;10.80;;;3.30;;
62580;SDS011;48640;48.770;9.148;2023-02-23T15:11:55;6.53;;;3.60;;
62580;SDS011;48640;48.770;9.148;2023-02-23T15:14:24;9.63;;;3.08;;
62580;SDS011;48640;48.770;9.148;2023-02-23T15:16:51;9.45;;;4.50;;
62580;SDS011;48640;48.770;9.148;2023-02-23T15:19:20;9.20;;;3.75;;
62580;SDS011;48640;48.770;9.148;2023-02-23T15:21:49;8.68;;;4.57;;
62580;SDS011;48640;48.770;9.148;2023-02-23T15:24:20;8.52;;;4.75;;
62580;SDS011;48640;48.770;9.148;2023-02-23T15:26:50;9.60;;;4.72;;
62580;SDS011;48640;48.770;9.148;2023-02-23T15:29:18;11.18;;;4.70;;